sensor_id;sensor_type;location;lat;lon;timestamp;pressure;altitude;pressure_sealevel;temperature;humidity
76553;BME280;65395;53.168;18.156;2023-04-23T00:01:58;100577.35;;;6.22;68.31
76553;BME280;65395;53.168;18.156;2023-04-23T00:04:27;100577.61;;;6.21;68.36
76553;BME280;65395;53.168;18.156;2023-04-23T00:06:54;100575.05;;;6.18;68.54
76553;BME280;65395;53.168;18.156;2023-04-23T00:09:22;100571.38;;;6.14;68.61
76553;BME280;65395;53.168;18.156;2023-04-23T00:11:50;100570.42;;;6.11;68.74
76553;BME280;65395;53.168;18.156;2023-04-23T00:14:16;100568.08;;;6.10;68.76
76553;BME280;65395;53.168;18.156;2023-04-23T00:16:43;100567.85;;;6.08;69.01
76553;BME280;65395;53.168;18.156;2023-04-23T00:19:10;100563.92;;;6.07;69.01
76553;BME280;65395;53.168;18.156;2023-04-23T00:21:36;100562.70;;;6.04;69.02
76553;BME280;65395;53.168;18.156;2023-04-23T00:24:03;100560.34;;;6.00;69.10
76553;BME280;65395;53.168;18.156;2023-04-23T00:26:30;100557.86;;;5.96;69.18
76553;BME280;65395;53.168;18.156;2023-04-23T00:28:57;100555.81;;;5.94;69.26
76553;BME280;65395;53.168;18.156;2023-04-23T00:31:24;100549.52;;;5.91;69.34
76553;BME280;65395;53.168;18.156;2023-04-23T00:33:52;100546.64;;;5.88;69.46
76553;BME280;65395;53.168;18.156;2023-04-23T00:36:19;100542.59;;;5.86;69.62
76553;BME280;65395;53.168;18.156;2023-04-23T00:38:46;100541.14;;;5.82;69.71
76553;BME280;65395;53.168;18.156;2023-04-23T00:41:15;100537.69;;;5.81;69.73
76553;BME280;65395;53.168;18.156;2023-04-23T00:43:42;100532.45;;;5.78;69.81
76553;BME280;65395;53.168;18.156;2023-04-23T00:46:10;100532.61;;;5.78;70.00
76553;BME280;65395;53.168;18.156;2023-04-23T00:48:37;100530.60;;;5.76;70.07
76553;BME280;65395;53.168;18.156;2023-04-23T00:51:05;100533.10;;;5.75;70.07
76553;BME280;65395;53.168;18.156;2023-04-23T00:53:32;100530.42;;;5.73;69.98
76553;BME280;65395;53.168;18.156;2023-04-23T00:56:01;100525.61;;;5.70;70.14
76553;BME280;65395;53.168;18.156;2023-04-23T00:58:30;100524.70;;;5.69;70.07
76553;BME280;65395;53.168;18.156;2023-04-23T01:00:57;100526.80;;;5.67;70.08
76553;BME280;65395;53.168;18.156;2023-04-23T01:03:25;100523.75;;;5.65;70.25
76553;BME280;65395;53.168;18.156;2023-04-23T01:05:53;100525.48;;;5.63;70.47
76553;BME280;65395;53.168;18.156;2023-04-23T01:08:22;100521.02;;;5.61;70.52
76553;BME280;65395;53.168;18.156;2023-04-23T01:10:51;100519.91;;;5.60;70.60
76553;BME280;65395;53.168;18.156;2023-04-23T01:13:19;100519.44;;;5.58;70.69
76553;BME280;65395;53.168;18.156;2023-04-23T01:15:47;100515.87;;;5.56;70.66
76553;BME280;65395;53.168;18.156;2023-04-23T01:18:14;100514.98;;;5.54;70.73
76553;BME280;65395;53.168;18.156;2023-04-23T01:20:41;100513.17;;;5.52;70.74
76553;BME280;65395;53.168;18.156;2023-04-23T01:23:09;100512.39;;;5.51;70.81
76553;BME280;65395;53.168;18.156;2023-04-23T01:25:36;100504.05;;;5.44;70.79
76553;BME280;65395;53.168;18.156;2023-04-23T01:28:04;100508.46;;;5.48;70.84
76553;BME280;65395;53.168;18.156;2023-04-23T01:30:33;100509.08;;;5.46;70.95
76553;BME280;65395;53.168;18.156;2023-04-23T01:33:01;100503.58;;;5.45;70.93
76553;BME280;65395;53.168;18.156;2023-04-23T01:35:30;100507.33;;;5.43;71.02
76553;BME280;65395;53.168;18.156;2023-04-23T01:37:58;100500.59;;;5.42;71.13
76553;BME280;65395;53.168;18.156;2023-04-23T01:40:28;100499.80;;;5.40;71.17
76553;BME280;65395;53.168;18.156;2023-04-23T01:42:56;100501.42;;;5.41;71.12
76553;BME280;65395;53.168;18.156;2023-04-23T01:45:23;100498.91;;;5.41;71.20
76553;BME280;65395;53.168;18.156;2023-04-23T01:47:50;100502.61;;;5.42;71.37
76553;BME280;65395;53.168;18.156;2023-04-23T01:50:18;100500.86;;;5.45;71.29
76553;BME280;65395;53.168;18.156;2023-04-23T01:52:48;100501.17;;;5.46;71.15
76553;BME280;65395;53.168;18.156;2023-04-23T01:55:15;100501.66;;;5.47;71.17
76553;BME280;65395;53.168;18.156;2023-04-23T01:57:45;100496.91;;;5.48;71.15
76553;BME280;65395;53.168;18.156;2023-04-23T02:00:13;100497.06;;;5.49;71.20
76553;BME280;65395;53.168;18.156;2023-04-23T02:02:42;100492.58;;;5.49;71.06
76553;BME280;65395;53.168;18.156;2023-04-23T02:05:12;100490.07;;;5.50;71.15
76553;BME280;65395;53.168;18.156;2023-04-23T02:07:39;100485.73;;;5.50;71.21
76553;BME280;65395;53.168;18.156;2023-04-23T02:10:07;100486.71;;;5.49;71.14
76553;BME280;65395;53.168;18.156;2023-04-23T02:12:35;100481.64;;;5.47;71.24
76553;BME280;65395;53.168;18.156;2023-04-23T02:15:03;100485.38;;;5.44;71.30
76553;BME280;65395;53.168;18.156;2023-04-23T02:17:30;100481.73;;;5.42;71.42
76553;BME280;65395;53.168;18.156;2023-04-23T02:20:00;100481.45;;;5.40;71.39
76553;BME280;65395;53.168;18.156;2023-04-23T02:22:27;100477.52;;;5.39;71.58
76553;BME280;65395;53.168;18.156;2023-04-23T02:24:54;100482.13;;;5.38;71.62
76553;BME280;65395;53.168;18.156;2023-04-23T02:27:21;100476.20;;;5.36;71.54
76553;BME280;65395;53.168;18.156;2023-04-23T02:29:48;100475.93;;;5.35;71.61
76553;BME280;65395;53.168;18.156;2023-04-23T02:32:15;100473.33;;;5.34;71.65
76553;BME280;65395;53.168;18.156;2023-04-23T02:34:42;100475.33;;;5.31;71.80
76553;BME280;65395;53.168;18.156;2023-04-23T02:37:09;100470.27;;;5.30;71.81
76553;BME280;65395;53.168;18.156;2023-04-23T02:39:36;100468.23;;;5.30;71.91
76553;BME280;65395;53.168;18.156;2023-04-23T02:42:04;100469.58;;;5.30;71.99
76553;BME280;65395;53.168;18.156;2023-04-23T02:44:31;100469.80;;;5.31;72.07
76553;BME280;65395;53.168;18.156;2023-04-23T02:46:58;100469.73;;;5.30;71.97
76553;BME280;65395;53.168;18.156;2023-04-23T02:49:25;100470.48;;;5.30;72.19
76553;BME280;65395;53.168;18.156;2023-04-23T02:51:52;100467.80;;;5.30;72.25
76553;BME280;65395;53.168;18.156;2023-04-23T02:54:19;100464.52;;;5.30;72.07
76553;BME280;65395;53.168;18.156;2023-04-23T02:56:46;100466.19;;;5.30;72.02
76553;BME280;65395;53.168;18.156;2023-04-23T02:59:13;100467.14;;;5.29;72.26
76553;BME280;65395;53.168;18.156;2023-04-23T03:01:39;100463.67;;;5.29;72.29
76553;BME280;65395;53.168;18.156;2023-04-23T03:04:07;100462.53;;;5.30;72.24
76553;BME280;65395;53.168;18.156;2023-04-23T03:06:34;100461.64;;;5.30;71.97
76553;BME280;65395;53.168;18.156;2023-04-23T03:09:03;100462.06;;;5.29;72.11
76553;BME280;65395;53.168;18.156;2023-04-23T03:11:31;100460.48;;;5.28;72.09
76553;BME280;65395;53.168;18.156;2023-04-23T03:13:58;100458.96;;;5.28;72.09
76553;BME280;65395;53.168;18.156;2023-04-23T03:16:26;100462.20;;;5.27;72.26
76553;BME280;65395;53.168;18.156;2023-04-23T03:18:54;100458.96;;;5.25;72.17
76553;BME280;65395;53.168;18.156;2023-04-23T03:21:21;100461.45;;;5.23;72.14
76553;BME280;65395;53.168;18.156;2023-04-23T03:23:48;100456.63;;;5.20;72.21
76553;BME280;65395;53.168;18.156;2023-04-23T03:26:15;100455.98;;;5.17;72.38
76553;BME280;65395;53.168;18.156;2023-04-23T03:28:46;100455.29;;;5.14;72.19
76553;BME280;65395;53.168;18.156;2023-04-23T03:31:13;100449.42;;;5.11;72.23
76553;BME280;65395;53.168;18.156;2023-04-23T03:33:39;100448.68;;;5.10;72.26
76553;BME280;65395;53.168;18.156;2023-04-23T03:36:06;100448.73;;;5.07;72.41
76553;BME280;65395;53.168;18.156;2023-04-23T03:38:33;100447.31;;;5.05;72.49
76553;BME280;65395;53.168;18.156;2023-04-23T03:41:00;100446.77;;;5.05;72.42
76553;BME280;65395;53.168;18.156;2023-04-23T03:43:27;100444.48;;;5.04;72.49
76553;BME280;65395;53.168;18.156;2023-04-23T03:46:04;100446.81;;;5.02;72.55
76553;BME280;65395;53.168;18.156;2023-04-23T03:48:35;100444.56;;;5.01;72.48
76553;BME280;65395;53.168;18.156;2023-04-23T03:51:07;100442.36;;;5.01;72.64
76553;BME280;65395;53.168;18.156;2023-04-23T03:53:40;100442.42;;;5.01;72.72
76553;BME280;65395;53.168;18.156;2023-04-23T03:56:26;100439.98;;;5.01;72.81
76553;BME280;65395;53.168;18.156;2023-04-23T03:59:05;100441.02;;;5.03;72.89
76553;BME280;65395;53.168;18.156;2023-04-23T04:01:32;100442.19;;;5.07;72.84
76553;BME280;65395;53.168;18.156;2023-04-23T04:04:01;100442.83;;;5.09;72.80
76553;BME280;65395;53.168;18.156;2023-04-23T04:06:30;100440.23;;;5.12;73.01
76553;BME280;65395;53.168;18.156;2023-04-23T04:08:56;100441.04;;;5.16;72.94
76553;BME280;65395;53.168;18.156;2023-04-23T04:11:23;100434.52;;;5.18;72.99
76553;BME280;65395;53.168;18.156;2023-04-23T04:13:50;100440.34;;;5.23;72.86
76553;BME280;65395;53.168;18.156;2023-04-23T04:16:17;100442.56;;;5.28;73.01
76553;BME280;65395;53.168;18.156;2023-04-23T04:18:43;100438.45;;;5.33;72.92
76553;BME280;65395;53.168;18.156;2023-04-23T04:21:10;100441.04;;;5.39;72.88
76553;BME280;65395;53.168;18.156;2023-04-23T04:23:36;100444.04;;;5.46;72.94
76553;BME280;65395;53.168;18.156;2023-04-23T04:26:04;100445.53;;;5.53;72.88
76553;BME280;65395;53.168;18.156;2023-04-23T04:28:33;100446.55;;;5.61;72.94
76553;BME280;65395;53.168;18.156;2023-04-23T04:31:02;100443.13;;;5.69;72.88
76553;BME280;65395;53.168;18.156;2023-04-23T04:33:31;100443.53;;;5.79;72.79
76553;BME280;65395;53.168;18.156;2023-04-23T04:35:58;100445.40;;;5.91;72.69
76553;BME280;65395;53.168;18.156;2023-04-23T04:38:26;100446.95;;;6.01;72.57
76553;BME280;65395;53.168;18.156;2023-04-23T04:40:54;100442.09;;;6.12;72.36
76553;BME280;65395;53.168;18.156;2023-04-23T04:43:24;100445.02;;;6.23;72.19
76553;BME280;65395;53.168;18.156;2023-04-23T04:45:52;100449.75;;;6.33;72.17
76553;BME280;65395;53.168;18.156;2023-04-23T04:48:20;100445.09;;;6.43;71.92
76553;BME280;65395;53.168;18.156;2023-04-23T04:50:47;100444.52;;;6.53;71.85
76553;BME280;65395;53.168;18.156;2023-04-23T04:53:14;100440.63;;;6.63;71.70
76553;BME280;65395;53.168;18.156;2023-04-23T04:55:40;100438.10;;;6.73;71.57
76553;BME280;65395;53.168;18.156;2023-04-23T04:58:07;100438.60;;;6.83;71.49
76553;BME280;65395;53.168;18.156;2023-04-23T05:00:34;100433.66;;;6.94;71.24
76553;BME280;65395;53.168;18.156;2023-04-23T05:03:01;100432.02;;;7.05;71.13
76553;BME280;65395;53.168;18.156;2023-04-23T05:05:28;100429.20;;;7.15;70.91
76553;BME280;65395;53.168;18.156;2023-04-23T05:07:54;100429.11;;;7.26;70.68
76553;BME280;65395;53.168;18.156;2023-04-23T05:10:24;100424.20;;;7.36;70.46
76553;BME280;65395;53.168;18.156;2023-04-23T05:12:51;100428.66;;;7.48;70.29
76553;BME280;65395;53.168;18.156;2023-04-23T05:15:19;100423.73;;;7.58;70.16
76553;BME280;65395;53.168;18.156;2023-04-23T05:17:46;100427.44;;;7.68;69.93
76553;BME280;65395;53.168;18.156;2023-04-23T05:20:13;100428.19;;;7.78;69.75
76553;BME280;65395;53.168;18.156;2023-04-23T05:22:41;100425.75;;;7.88;69.65
76553;BME280;65395;53.168;18.156;2023-04-23T05:25:09;100429.56;;;7.99;69.56
76553;BME280;65395;53.168;18.156;2023-04-23T05:27:38;100421.08;;;8.05;69.35
76553;BME280;65395;53.168;18.156;2023-04-23T05:30:07;100417.60;;;8.14;69.27
76553;BME280;65395;53.168;18.156;2023-04-23T05:32:36;100429.36;;;8.31;69.09
76553;BME280;65395;53.168;18.156;2023-04-23T05:35:04;100429.80;;;8.42;68.91
76553;BME280;65395;53.168;18.156;2023-04-23T05:37:31;100430.02;;;8.53;68.71
76553;BME280;65395;53.168;18.156;2023-04-23T05:39:58;100431.30;;;8.64;68.51
76553;BME280;65395;53.168;18.156;2023-04-23T05:42:24;100427.94;;;8.75;68.30
76553;BME280;65395;53.168;18.156;2023-04-23T05:44:51;100430.64;;;8.87;68.08
76553;BME280;65395;53.168;18.156;2023-04-23T05:47:19;100434.79;;;8.98;67.79
76553;BME280;65395;53.168;18.156;2023-04-23T05:49:47;100431.95;;;9.08;67.54
76553;BME280;65395;53.168;18.156;2023-04-23T05:52:14;100434.51;;;9.19;67.56
76553;BME280;65395;53.168;18.156;2023-04-23T05:54:41;100434.66;;;9.29;67.37
76553;BME280;65395;53.168;18.156;2023-04-23T05:57:07;100431.23;;;9.37;67.33
76553;BME280;65395;53.168;18.156;2023-04-23T05:59:38;100433.86;;;9.47;67.15
76553;BME280;65395;53.168;18.156;2023-04-23T06:02:05;100430.79;;;9.57;66.98
76553;BME280;65395;53.168;18.156;2023-04-23T06:04:32;100430.44;;;9.67;66.78
76553;BME280;65395;53.168;18.156;2023-04-23T06:06:59;100430.20;;;9.76;66.60
76553;BME280;65395;53.168;18.156;2023-04-23T06:09:26;100423.59;;;9.86;66.50
76553;BME280;65395;53.168;18.156;2023-04-23T06:11:54;100426.36;;;9.97;66.30
76553;BME280;65395;53.168;18.156;2023-04-23T06:14:21;100427.15;;;10.10;66.06
76553;BME280;65395;53.168;18.156;2023-04-23T06:16:48;100428.52;;;10.21;65.68
76553;BME280;65395;53.168;18.156;2023-04-23T06:19:14;100421.28;;;10.32;65.36
76553;BME280;65395;53.168;18.156;2023-04-23T06:21:43;100419.79;;;10.43;65.27
76553;BME280;65395;53.168;18.156;2023-04-23T06:24:09;100422.77;;;10.54;65.14
76553;BME280;65395;53.168;18.156;2023-04-23T06:26:38;100419.73;;;10.65;64.93
76553;BME280;65395;53.168;18.156;2023-04-23T06:29:09;100421.40;;;10.78;64.71
76553;BME280;65395;53.168;18.156;2023-04-23T06:31:42;100417.35;;;10.91;64.16
76553;BME280;65395;53.168;18.156;2023-04-23T06:34:09;100415.56;;;11.05;63.70
76553;BME280;65395;53.168;18.156;2023-04-23T06:36:36;100417.41;;;11.18;63.67
76553;BME280;65395;53.168;18.156;2023-04-23T06:39:02;100422.73;;;11.28;63.55
76553;BME280;65395;53.168;18.156;2023-04-23T06:41:29;100417.04;;;11.39;63.45
76553;BME280;65395;53.168;18.156;2023-04-23T06:44:06;100414.84;;;11.50;63.34
76553;BME280;65395;53.168;18.156;2023-04-23T06:46:38;100408.43;;;11.61;63.08
76553;BME280;65395;53.168;18.156;2023-04-23T06:49:05;100407.98;;;11.74;63.08
76553;BME280;65395;53.168;18.156;2023-04-23T06:51:35;100410.30;;;11.86;62.60
76553;BME280;65395;53.168;18.156;2023-04-23T06:54:02;100400.71;;;11.93;62.36
76553;BME280;65395;53.168;18.156;2023-04-23T06:56:28;100408.52;;;12.10;62.25
76553;BME280;65395;53.168;18.156;2023-04-23T06:58:55;100410.98;;;12.22;62.05
76553;BME280;65395;53.168;18.156;2023-04-23T07:01:24;100407.91;;;12.35;61.72
76553;BME280;65395;53.168;18.156;2023-04-23T07:03:51;100398.71;;;12.47;61.40
76553;BME280;65395;53.168;18.156;2023-04-23T07:06:19;100400.44;;;12.62;61.20
76553;BME280;65395;53.168;18.156;2023-04-23T07:08:49;100400.23;;;12.77;60.96
76553;BME280;65395;53.168;18.156;2023-04-23T07:11:15;100395.77;;;12.92;60.60
76553;BME280;65395;53.168;18.156;2023-04-23T07:13:42;100395.69;;;13.08;60.53
76553;BME280;65395;53.168;18.156;2023-04-23T07:16:09;100393.39;;;13.19;60.37
76553;BME280;65395;53.168;18.156;2023-04-23T07:18:36;100394.09;;;13.29;60.13
76553;BME280;65395;53.168;18.156;2023-04-23T07:21:02;100390.88;;;13.41;59.76
76553;BME280;65395;53.168;18.156;2023-04-23T07:23:29;100392.54;;;13.54;59.42
76553;BME280;65395;53.168;18.156;2023-04-23T07:25:56;100390.24;;;13.65;59.23
76553;BME280;65395;53.168;18.156;2023-04-23T07:28:24;100384.18;;;13.79;58.84
76553;BME280;65395;53.168;18.156;2023-04-23T07:30:50;100386.57;;;13.96;58.01
76553;BME280;65395;53.168;18.156;2023-04-23T07:33:17;100388.11;;;14.12;57.80
76553;BME280;65395;53.168;18.156;2023-04-23T07:35:48;100385.91;;;14.27;57.60
76553;BME280;65395;53.168;18.156;2023-04-23T07:38:14;100381.77;;;14.44;57.29
76553;BME280;65395;53.168;18.156;2023-04-23T07:40:41;100381.81;;;14.58;57.09
76553;BME280;65395;53.168;18.156;2023-04-23T07:43:08;100386.39;;;14.72;56.52
76553;BME280;65395;53.168;18.156;2023-04-23T07:45:35;100384.90;;;14.86;56.21
76553;BME280;65395;53.168;18.156;2023-04-23T07:48:04;100381.30;;;14.98;55.97
76553;BME280;65395;53.168;18.156;2023-04-23T07:50:31;100379.45;;;15.13;55.65
76553;BME280;65395;53.168;18.156;2023-04-23T07:52:58;100374.30;;;15.25;55.25
76553;BME280;65395;53.168;18.156;2023-04-23T07:55:24;100371.85;;;15.37;54.86
76553;BME280;65395;53.168;18.156;2023-04-23T07:57:51;100369.50;;;15.51;54.18
76553;BME280;65395;53.168;18.156;2023-04-23T08:00:18;100359.65;;;15.63;54.15
76553;BME280;65395;53.168;18.156;2023-04-23T08:02:46;100357.41;;;15.77;53.41
76553;BME280;65395;53.168;18.156;2023-04-23T08:05:12;100356.05;;;15.92;53.30
76553;BME280;65395;53.168;18.156;2023-04-23T08:07:39;100356.04;;;16.07;52.73
76553;BME280;65395;53.168;18.156;2023-04-23T08:10:06;100351.98;;;16.20;52.33
76553;BME280;65395;53.168;18.156;2023-04-23T08:12:33;100348.53;;;16.33;52.33
76553;BME280;65395;53.168;18.156;2023-04-23T08:15:02;100344.83;;;16.46;52.32
76553;BME280;65395;53.168;18.156;2023-04-23T08:17:43;100345.90;;;16.62;51.94
76553;BME280;65395;53.168;18.156;2023-04-23T08:20:09;100341.34;;;16.77;51.41
76553;BME280;65395;53.168;18.156;2023-04-23T08:22:36;100339.89;;;16.89;50.66
76553;BME280;65395;53.168;18.156;2023-04-23T08:25:03;100343.36;;;17.01;50.18
76553;BME280;65395;53.168;18.156;2023-04-23T08:27:30;100336.99;;;17.12;50.61
76553;BME280;65395;53.168;18.156;2023-04-23T08:29:57;100336.40;;;17.22;50.34
76553;BME280;65395;53.168;18.156;2023-04-23T08:32:24;100340.70;;;17.34;50.11
76553;BME280;65395;53.168;18.156;2023-04-23T08:34:51;100334.55;;;17.47;49.46
76553;BME280;65395;53.168;18.156;2023-04-23T08:37:17;100333.76;;;17.62;48.41
76553;BME280;65395;53.168;18.156;2023-04-23T08:39:44;100327.33;;;17.72;47.79
76553;BME280;65395;53.168;18.156;2023-04-23T08:42:25;100326.90;;;17.90;47.59
76553;BME280;65395;53.168;18.156;2023-04-23T08:44:52;100329.62;;;18.06;45.63
76553;BME280;65395;53.168;18.156;2023-04-23T08:47:23;100329.03;;;18.22;45.87
76553;BME280;65395;53.168;18.156;2023-04-23T08:49:53;100329.90;;;18.36;44.63
76553;BME280;65395;53.168;18.156;2023-04-23T08:52:23;100327.30;;;18.50;44.96
76553;BME280;65395;53.168;18.156;2023-04-23T08:54:52;100327.84;;;18.63;45.08
76553;BME280;65395;53.168;18.156;2023-04-23T08:57:21;100322.80;;;18.76;45.35
76553;BME280;65395;53.168;18.156;2023-04-23T08:59:47;100317.60;;;18.88;43.31
76553;BME280;65395;53.168;18.156;2023-04-23T09:02:15;100316.64;;;19.00;42.92
76553;BME280;65395;53.168;18.156;2023-04-23T09:04:44;100311.14;;;19.11;43.07
76553;BME280;65395;53.168;18.156;2023-04-23T09:07:11;100307.54;;;19.22;43.13
76553;BME280;65395;53.168;18.156;2023-04-23T09:09:38;100302.59;;;19.32;41.28
76553;BME280;65395;53.168;18.156;2023-04-23T09:12:06;100304.20;;;19.43;41.25
76553;BME280;65395;53.168;18.156;2023-04-23T09:14:34;100299.21;;;19.54;41.38
76553;BME280;65395;53.168;18.156;2023-04-23T09:17:02;100299.69;;;19.66;40.42
76553;BME280;65395;53.168;18.156;2023-04-23T09:19:28;100300.64;;;19.76;39.28
76553;BME280;65395;53.168;18.156;2023-04-23T09:21:57;100298.91;;;19.86;38.72
76553;BME280;65395;53.168;18.156;2023-04-23T09:24:26;100300.08;;;19.96;37.91
76553;BME280;65395;53.168;18.156;2023-04-23T09:26:53;100300.16;;;20.05;37.32
76553;BME280;65395;53.168;18.156;2023-04-23T09:29:21;100298.15;;;20.13;36.62
76553;BME280;65395;53.168;18.156;2023-04-23T09:31:53;100295.62;;;20.20;36.40
76553;BME280;65395;53.168;18.156;2023-04-23T09:34:22;100294.27;;;20.27;36.86
76553;BME280;65395;53.168;18.156;2023-04-23T09:36:50;100288.61;;;20.35;36.66
76553;BME280;65395;53.168;18.156;2023-04-23T09:39:20;100285.67;;;20.44;35.60
76553;BME280;65395;53.168;18.156;2023-04-23T09:41:50;100284.92;;;20.54;35.68
76553;BME280;65395;53.168;18.156;2023-04-23T09:44:20;100283.23;;;20.64;35.15
76553;BME280;65395;53.168;18.156;2023-04-23T09:46:48;100279.07;;;20.73;35.00
76553;BME280;65395;53.168;18.156;2023-04-23T09:49:16;100277.27;;;20.81;34.26
76553;BME280;65395;53.168;18.156;2023-04-23T09:51:45;100276.20;;;20.87;34.44
76553;BME280;65395;53.168;18.156;2023-04-23T09:54:18;100267.86;;;20.92;34.24
76553;BME280;65395;53.168;18.156;2023-04-23T09:56:50;100263.30;;;20.96;34.49
76553;BME280;65395;53.168;18.156;2023-04-23T09:59:22;100251.29;;;21.01;34.41
76553;BME280;65395;53.168;18.156;2023-04-23T10:01:50;100252.48;;;21.10;33.96
76553;BME280;65395;53.168;18.156;2023-04-23T10:04:23;100252.84;;;21.20;32.84
76553;BME280;65395;53.168;18.156;2023-04-23T10:06:55;100256.37;;;21.26;31.15
76553;BME280;65395;53.168;18.156;2023-04-23T10:09:23;100249.13;;;21.30;31.53
76553;BME280;65395;53.168;18.156;2023-04-23T10:11:51;100244.96;;;21.35;31.70
76553;BME280;65395;53.168;18.156;2023-04-23T10:14:20;100237.90;;;21.40;31.10
76553;BME280;65395;53.168;18.156;2023-04-23T10:16:50;100236.60;;;21.48;31.19
76553;BME280;65395;53.168;18.156;2023-04-23T10:19:22;100245.67;;;21.57;31.62
76553;BME280;65395;53.168;18.156;2023-04-23T10:21:53;100239.92;;;21.66;30.23
76553;BME280;65395;53.168;18.156;2023-04-23T10:24:24;100240.05;;;21.70;29.61
76553;BME280;65395;53.168;18.156;2023-04-23T10:26:52;100237.00;;;21.72;29.90
76553;BME280;65395;53.168;18.156;2023-04-23T10:29:27;100231.36;;;21.76;31.07
76553;BME280;65395;53.168;18.156;2023-04-23T10:31:56;100233.23;;;21.85;30.92
76553;BME280;65395;53.168;18.156;2023-04-23T10:34:25;100225.10;;;21.93;30.84
76553;BME280;65395;53.168;18.156;2023-04-23T10:36:54;100227.85;;;22.00;30.68
76553;BME280;65395;53.168;18.156;2023-04-23T10:39:26;100229.15;;;22.10;31.20
76553;BME280;65395;53.168;18.156;2023-04-23T10:41:54;100220.32;;;22.19;31.15
76553;BME280;65395;53.168;18.156;2023-04-23T10:44:21;100220.45;;;22.27;30.40
76553;BME280;65395;53.168;18.156;2023-04-23T10:46:53;100215.90;;;22.35;30.50
76553;BME280;65395;53.168;18.156;2023-04-23T10:49:23;100216.48;;;22.41;30.38
76553;BME280;65395;53.168;18.156;2023-04-23T10:52:07;100211.38;;;22.46;30.06
76553;BME280;65395;53.168;18.156;2023-04-23T10:54:35;100207.78;;;22.49;30.57
76553;BME280;65395;53.168;18.156;2023-04-23T10:57:04;100202.59;;;22.55;29.83
76553;BME280;65395;53.168;18.156;2023-04-23T10:59:33;100209.67;;;22.58;28.38
76553;BME280;65395;53.168;18.156;2023-04-23T11:02:09;100202.61;;;22.55;28.69
76553;BME280;65395;53.168;18.156;2023-04-23T11:04:45;100201.59;;;22.56;27.96
76553;BME280;65395;53.168;18.156;2023-04-23T11:07:12;100199.84;;;22.56;27.79
76553;BME280;65395;53.168;18.156;2023-04-23T11:09:48;100195.98;;;22.62;27.84
76553;BME280;65395;53.168;18.156;2023-04-23T11:12:31;100192.27;;;22.69;27.60
76553;BME280;65395;53.168;18.156;2023-04-23T11:14:58;100189.45;;;22.76;28.01
76553;BME280;65395;53.168;18.156;2023-04-23T11:17:57;100188.95;;;22.84;27.82
76553;BME280;65395;53.168;18.156;2023-04-23T11:20:24;100193.81;;;22.92;27.33
76553;BME280;65395;53.168;18.156;2023-04-23T11:22:51;100185.52;;;22.94;26.87
76553;BME280;65395;53.168;18.156;2023-04-23T11:25:21;100183.38;;;22.95;26.42
76553;BME280;65395;53.168;18.156;2023-04-23T11:27:51;100180.16;;;22.97;26.42
76553;BME280;65395;53.168;18.156;2023-04-23T11:30:24;100179.64;;;23.02;26.20
76553;BME280;65395;53.168;18.156;2023-04-23T11:32:53;100180.90;;;23.10;25.95
76553;BME280;65395;53.168;18.156;2023-04-23T11:35:22;100174.60;;;23.15;26.26
76553;BME280;65395;53.168;18.156;2023-04-23T11:37:50;100170.56;;;23.20;26.56
76553;BME280;65395;53.168;18.156;2023-04-23T11:40:18;100172.86;;;23.23;25.97
76553;BME280;65395;53.168;18.156;2023-04-23T11:42:50;100175.09;;;23.23;25.98
76553;BME280;65395;53.168;18.156;2023-04-23T11:45:23;100170.27;;;23.28;25.96
76553;BME280;65395;53.168;18.156;2023-04-23T11:47:52;100164.61;;;23.33;25.33
76553;BME280;65395;53.168;18.156;2023-04-23T11:50:24;100168.01;;;23.40;25.73
76553;BME280;65395;53.168;18.156;2023-04-23T11:52:52;100163.09;;;23.44;25.94
76553;BME280;65395;53.168;18.156;2023-04-23T11:55:19;100167.17;;;23.48;25.80
76553;BME280;65395;53.168;18.156;2023-04-23T11:57:48;100164.70;;;23.53;25.92
76553;BME280;65395;53.168;18.156;2023-04-23T12:00:17;100164.95;;;23.64;26.24
76553;BME280;65395;53.168;18.156;2023-04-23T12:02:56;100158.58;;;23.78;26.39
76553;BME280;65395;53.168;18.156;2023-04-23T12:05:33;100156.48;;;23.92;26.52
76553;BME280;65395;53.168;18.156;2023-04-23T12:08:13;100155.94;;;24.03;26.76
76553;BME280;65395;53.168;18.156;2023-04-23T12:13:20;100151.08;;;24.28;26.54
76553;BME280;65395;53.168;18.156;2023-04-23T12:15:52;100146.50;;;24.37;27.03
76553;BME280;65395;53.168;18.156;2023-04-23T12:18:30;100144.14;;;24.52;26.98
76553;BME280;65395;53.168;18.156;2023-04-23T12:21:05;100143.08;;;24.67;26.46
76553;BME280;65395;53.168;18.156;2023-04-23T12:23:41;100140.37;;;24.80;25.84
76553;BME280;65395;53.168;18.156;2023-04-23T12:26:11;100126.08;;;24.86;26.05
76553;BME280;65395;53.168;18.156;2023-04-23T12:28:50;100127.02;;;24.97;26.19
76553;BME280;65395;53.168;18.156;2023-04-23T12:31:18;100134.08;;;25.15;25.99
76553;BME280;65395;53.168;18.156;2023-04-23T12:33:46;100127.66;;;25.28;25.72
76553;BME280;65395;53.168;18.156;2023-04-23T12:36:14;100124.20;;;25.42;25.61
76553;BME280;65395;53.168;18.156;2023-04-23T12:38:42;100123.64;;;25.54;25.45
76553;BME280;65395;53.168;18.156;2023-04-23T12:41:09;100123.91;;;25.69;25.51
76553;BME280;65395;53.168;18.156;2023-04-23T12:43:36;100126.17;;;25.83;24.99
76553;BME280;65395;53.168;18.156;2023-04-23T12:46:02;100127.25;;;25.91;25.08
76553;BME280;65395;53.168;18.156;2023-04-23T12:48:29;100124.87;;;25.98;25.02
76553;BME280;65395;53.168;18.156;2023-04-23T12:50:56;100118.94;;;26.06;24.94
76553;BME280;65395;53.168;18.156;2023-04-23T12:53:23;100116.75;;;26.18;25.14
76553;BME280;65395;53.168;18.156;2023-04-23T12:55:49;100120.58;;;26.35;25.12